sensor_id;sensor_type;location;lat;lon;timestamp;pressure;altitude;pressure_sealevel;temperature;humidity
47726;BME280;33483;48.294;16.388;2023-07-08T00:00:08;100111.16;;;15.42;100.00
47726;BME280;33483;48.294;16.388;2023-07-08T00:02:56;100113.41;;;15.43;100.00
47726;BME280;33483;48.294;16.388;2023-07-08T00:05:24;100114.94;;;15.44;100.00
47726;BME280;33483;48.294;16.388;2023-07-08T00:07:52;100112.47;;;15.41;100.00
47726;BME280;33483;48.294;16.388;2023-07-08T00:10:24;100126.75;;;15.37;100.00
47726;BME280;33483;48.294;16.388;2023-07-08T00:12:53;100127.84;;;15.34;100.00
47726;BME280;33483;48.294;16.388;2023-07-08T00:15:24;100130.78;;;15.29;100.00
47726;BME280;33483;48.294;16.388;2023-07-08T00:17:52;100138.00;;;15.24;100.00
47726;BME280;33483;48.294;16.388;2023-07-08T00:20:22;100132.53;;;15.19;100.00
47726;BME280;33483;48.294;16.388;2023-07-08T00:22:50;100124.50;;;15.15;100.00
47726;BME280;33483;48.294;16.388;2023-07-08T00:25:20;100128.25;;;15.18;100.00
47726;BME280;33483;48.294;16.388;2023-07-08T00:27:51;100126.56;;;15.15;100.00
47726;BME280;33483;48.294;16.388;2023-07-08T00:32:46;100126.50;;;15.07;100.00
47726;BME280;33483;48.294;16.388;2023-07-08T00:35:14;100127.03;;;15.06;100.00
47726;BME280;33483;48.294;16.388;2023-07-08T00:37:42;100130.19;;;15.02;100.00
47726;BME280;33483;48.294;16.388;2023-07-08T00:40:20;100131.06;;;14.97;100.00
47726;BME280;33483;48.294;16.388;2023-07-08T00:42:48;100119.25;;;14.91;100.00
47726;BME280;33483;48.294;16.388;2023-07-08T00:45:29;100121.63;;;14.87;100.00
47726;BME280;33483;48.294;16.388;2023-07-08T00:48:00;100117.78;;;14.90;100.00
47726;BME280;33483;48.294;16.388;2023-07-08T00:50:33;100112.00;;;14.88;100.00
47726;BME280;33483;48.294;16.388;2023-07-08T00:55:46;100115.66;;;14.83;100.00
47726;BME280;33483;48.294;16.388;2023-07-08T00:58:15;100115.25;;;14.79;100.00
47726;BME280;33483;48.294;16.388;2023-07-08T01:00:43;100108.50;;;14.75;100.00
47726;BME280;33483;48.294;16.388;2023-07-08T01:03:11;100104.31;;;14.68;100.00
47726;BME280;33483;48.294;16.388;2023-07-08T01:05:38;100099.09;;;14.64;100.00
47726;BME280;33483;48.294;16.388;2023-07-08T01:08:06;100106.84;;;14.58;100.00
47726;BME280;33483;48.294;16.388;2023-07-08T01:10:33;100104.38;;;14.55;100.00
47726;BME280;33483;48.294;16.388;2023-07-08T01:13:03;100106.97;;;14.53;100.00
47726;BME280;33483;48.294;16.388;2023-07-08T01:15:39;100103.03;;;14.48;100.00
47726;BME280;33483;48.294;16.388;2023-07-08T01:18:13;100096.25;;;14.44;100.00
47726;BME280;33483;48.294;16.388;2023-07-08T01:20:46;100098.66;;;14.40;100.00
47726;BME280;33483;48.294;16.388;2023-07-08T01:23:15;100096.94;;;14.37;100.00
47726;BME280;33483;48.294;16.388;2023-07-08T01:25:44;100103.59;;;14.34;100.00
47726;BME280;33483;48.294;16.388;2023-07-08T01:28:12;100087.63;;;14.34;100.00
47726;BME280;33483;48.294;16.388;2023-07-08T01:30:42;100087.94;;;14.31;100.00
47726;BME280;33483;48.294;16.388;2023-07-08T01:33:14;100100.59;;;14.32;100.00
47726;BME280;33483;48.294;16.388;2023-07-08T01:35:44;100100.91;;;14.28;100.00
47726;BME280;33483;48.294;16.388;2023-07-08T01:38:14;100097.19;;;14.26;100.00
47726;BME280;33483;48.294;16.388;2023-07-08T01:40:47;100090.59;;;14.23;100.00
47726;BME280;33483;48.294;16.388;2023-07-08T01:43:15;100095.25;;;14.21;100.00
47726;BME280;33483;48.294;16.388;2023-07-08T01:45:42;100092.34;;;14.26;100.00
47726;BME280;33483;48.294;16.388;2023-07-08T01:48:12;100091.16;;;14.22;100.00
47726;BME280;33483;48.294;16.388;2023-07-08T01:50:42;100081.09;;;14.19;100.00
47726;BME280;33483;48.294;16.388;2023-07-08T01:53:14;100080.13;;;14.16;100.00
47726;BME280;33483;48.294;16.388;2023-07-08T01:55:44;100074.66;;;14.11;100.00
47726;BME280;33483;48.294;16.388;2023-07-08T01:58:13;100076.28;;;14.06;100.00
47726;BME280;33483;48.294;16.388;2023-07-08T02:00:41;100074.78;;;14.05;100.00
47726;BME280;33483;48.294;16.388;2023-07-08T02:03:11;100075.31;;;14.04;100.00
47726;BME280;33483;48.294;16.388;2023-07-08T02:05:38;100075.31;;;14.04;100.00
47726;BME280;33483;48.294;16.388;2023-07-08T02:08:05;100073.38;;;13.99;100.00
47726;BME280;33483;48.294;16.388;2023-07-08T02:10:32;100068.16;;;13.95;100.00
47726;BME280;33483;48.294;16.388;2023-07-08T02:13:00;100060.31;;;13.94;100.00
47726;BME280;33483;48.294;16.388;2023-07-08T02:15:27;100063.66;;;13.92;100.00
47726;BME280;33483;48.294;16.388;2023-07-08T02:17:55;100070.53;;;13.91;100.00
47726;BME280;33483;48.294;16.388;2023-07-08T02:20:24;100065.47;;;13.90;100.00
47726;BME280;33483;48.294;16.388;2023-07-08T02:22:54;100069.34;;;13.87;100.00
47726;BME280;33483;48.294;16.388;2023-07-08T02:25:21;100067.84;;;13.86;100.00
47726;BME280;33483;48.294;16.388;2023-07-08T02:27:49;100067.41;;;13.82;100.00
47726;BME280;33483;48.294;16.388;2023-07-08T02:30:18;100064.97;;;13.78;100.00
47726;BME280;33483;48.294;16.388;2023-07-08T02:32:45;100065.28;;;13.75;100.00
47726;BME280;33483;48.294;16.388;2023-07-08T02:35:24;100059.28;;;13.71;100.00
47726;BME280;33483;48.294;16.388;2023-07-08T02:37:53;100046.22;;;13.66;100.00
47726;BME280;33483;48.294;16.388;2023-07-08T02:40:20;100049.31;;;13.62;100.00
47726;BME280;33483;48.294;16.388;2023-07-08T02:42:50;100043.84;;;13.56;100.00
47726;BME280;33483;48.294;16.388;2023-07-08T02:45:17;100049.00;;;13.52;100.00
47726;BME280;33483;48.294;16.388;2023-07-08T02:47:45;100049.13;;;13.47;100.00
47726;BME280;33483;48.294;16.388;2023-07-08T02:50:12;100062.06;;;13.44;100.00
47726;BME280;33483;48.294;16.388;2023-07-08T02:52:40;100061.44;;;13.38;100.00
47726;BME280;33483;48.294;16.388;2023-07-08T02:55:07;100062.06;;;13.31;100.00
47726;BME280;33483;48.294;16.388;2023-07-08T02:57:36;100059.59;;;13.28;100.00
47726;BME280;33483;48.294;16.388;2023-07-08T03:00:03;100050.81;;;13.24;100.00
47726;BME280;33483;48.294;16.388;2023-07-08T03:02:31;100059.47;;;13.20;100.00
47726;BME280;33483;48.294;16.388;2023-07-08T03:04:58;100061.81;;;13.16;100.00
47726;BME280;33483;48.294;16.388;2023-07-08T03:07:28;100058.84;;;13.14;100.00
47726;BME280;33483;48.294;16.388;2023-07-08T03:09:55;100056.78;;;13.15;100.00
47726;BME280;33483;48.294;16.388;2023-07-08T03:12:25;100060.31;;;13.15;100.00
47726;BME280;33483;48.294;16.388;2023-07-08T03:14:52;100056.25;;;13.16;100.00
47726;BME280;33483;48.294;16.388;2023-07-08T03:17:19;100061.50;;;13.20;100.00
47726;BME280;33483;48.294;16.388;2023-07-08T03:19:46;100068.03;;;13.22;100.00
47726;BME280;33483;48.294;16.388;2023-07-08T03:22:14;100059.38;;;13.26;100.00
47726;BME280;33483;48.294;16.388;2023-07-08T03:24:44;100072.97;;;13.29;100.00
47726;BME280;33483;48.294;16.388;2023-07-08T03:27:35;100064.84;;;13.31;100.00
47726;BME280;33483;48.294;16.388;2023-07-08T03:30:03;100074.06;;;13.39;100.00
47726;BME280;33483;48.294;16.388;2023-07-08T03:32:34;100072.25;;;13.42;100.00
47726;BME280;33483;48.294;16.388;2023-07-08T03:35:01;100077.50;;;13.45;100.00
47726;BME280;33483;48.294;16.388;2023-07-08T03:37:28;100077.59;;;13.53;100.00
47726;BME280;33483;48.294;16.388;2023-07-08T03:39:56;100091.94;;;13.57;100.00
47726;BME280;33483;48.294;16.388;2023-07-08T03:42:27;100095.69;;;13.73;100.00
47726;BME280;33483;48.294;16.388;2023-07-08T03:44:56;100097.28;;;14.88;100.00
47726;BME280;33483;48.294;16.388;2023-07-08T03:47:25;100098.38;;;16.10;100.00
47726;BME280;33483;48.294;16.388;2023-07-08T03:49:54;100098.25;;;17.04;100.00
47726;BME280;33483;48.294;16.388;2023-07-08T03:52:22;100100.09;;;17.84;100.00
47726;BME280;33483;48.294;16.388;2023-07-08T03:54:50;100108.47;;;18.54;100.00
47726;BME280;33483;48.294;16.388;2023-07-08T03:57:19;100116.69;;;19.09;100.00
47726;BME280;33483;48.294;16.388;2023-07-08T03:59:47;100118.88;;;19.67;95.18
47726;BME280;33483;48.294;16.388;2023-07-08T04:02:19;100120.72;;;20.06;83.32
47726;BME280;33483;48.294;16.388;2023-07-08T04:04:46;100123.78;;;20.35;80.75
47726;BME280;33483;48.294;16.388;2023-07-08T04:07:14;100127.94;;;20.87;74.43
47726;BME280;33483;48.294;16.388;2023-07-08T04:09:41;100123.53;;;20.94;71.17
47726;BME280;33483;48.294;16.388;2023-07-08T04:12:14;100121.38;;;20.32;75.25
47726;BME280;33483;48.294;16.388;2023-07-08T04:14:43;100118.41;;;21.00;67.38
47726;BME280;33483;48.294;16.388;2023-07-08T04:17:11;100117.63;;;21.26;65.94
47726;BME280;33483;48.294;16.388;2023-07-08T04:19:41;100130.19;;;21.61;61.56
47726;BME280;33483;48.294;16.388;2023-07-08T04:22:11;100127.69;;;20.93;61.71
47726;BME280;33483;48.294;16.388;2023-07-08T04:24:38;100133.78;;;20.46;63.88
47726;BME280;33483;48.294;16.388;2023-07-08T04:27:11;100132.63;;;19.80;64.64
47726;BME280;33483;48.294;16.388;2023-07-08T04:29:39;100131.53;;;19.76;65.48
47726;BME280;33483;48.294;16.388;2023-07-08T04:32:07;100125.25;;;19.19;68.17
47726;BME280;33483;48.294;16.388;2023-07-08T04:34:40;100147.94;;;19.45;68.34
47726;BME280;33483;48.294;16.388;2023-07-08T04:37:08;100139.44;;;19.03;69.71
47726;BME280;33483;48.294;16.388;2023-07-08T04:39:35;100135.34;;;18.65;71.86
47726;BME280;33483;48.294;16.388;2023-07-08T04:42:03;100133.72;;;18.54;74.25
47726;BME280;33483;48.294;16.388;2023-07-08T04:44:34;100133.41;;;18.43;77.31
47726;BME280;33483;48.294;16.388;2023-07-08T04:47:03;100124.03;;;18.33;78.51
47726;BME280;33483;48.294;16.388;2023-07-08T04:49:30;100129.13;;;18.27;81.08
47726;BME280;33483;48.294;16.388;2023-07-08T04:52:00;100136.78;;;18.34;79.64
47726;BME280;33483;48.294;16.388;2023-07-08T04:54:28;100126.78;;;18.55;79.81
47726;BME280;33483;48.294;16.388;2023-07-08T04:56:56;100135.72;;;19.26;73.42
47726;BME280;33483;48.294;16.388;2023-07-08T04:59:25;100134.28;;;19.17;69.69
47726;BME280;33483;48.294;16.388;2023-07-08T05:01:55;100138.28;;;20.32;64.46
47726;BME280;33483;48.294;16.388;2023-07-08T05:04:22;100132.75;;;20.94;62.48
47726;BME280;33483;48.294;16.388;2023-07-08T05:06:50;100135.88;;;21.25;62.63
47726;BME280;33483;48.294;16.388;2023-07-08T05:09:19;100140.94;;;23.17;55.40
47726;BME280;33483;48.294;16.388;2023-07-08T05:11:49;100152.91;;;24.19;49.43
47726;BME280;33483;48.294;16.388;2023-07-08T05:14:16;100150.72;;;24.62;47.80
47726;BME280;33483;48.294;16.388;2023-07-08T05:16:43;100153.75;;;24.76;47.51
47726;BME280;33483;48.294;16.388;2023-07-08T05:19:10;100150.31;;;24.89;46.45
47726;BME280;33483;48.294;16.388;2023-07-08T05:21:38;100157.75;;;24.28;47.86
47726;BME280;33483;48.294;16.388;2023-07-08T05:24:05;100149.88;;;24.60;48.70
47726;BME280;33483;48.294;16.388;2023-07-08T05:26:32;100148.06;;;26.14;45.28
47726;BME280;33483;48.294;16.388;2023-07-08T05:28:59;100153.91;;;26.66;42.72
47726;BME280;33483;48.294;16.388;2023-07-08T05:31:27;100146.63;;;26.38;44.14
47726;BME280;33483;48.294;16.388;2023-07-08T05:34:13;100154.47;;;26.51;43.30
47726;BME280;33483;48.294;16.388;2023-07-08T05:36:41;100154.00;;;25.47;47.35
47726;BME280;33483;48.294;16.388;2023-07-08T05:39:08;100145.47;;;23.93;48.95
47726;BME280;33483;48.294;16.388;2023-07-08T05:41:37;100146.31;;;23.75;51.20
47726;BME280;33483;48.294;16.388;2023-07-08T05:44:04;100139.00;;;23.20;53.65
47726;BME280;33483;48.294;16.388;2023-07-08T05:46:34;100138.41;;;23.21;53.82
47726;BME280;33483;48.294;16.388;2023-07-08T05:49:01;100144.56;;;23.70;52.56
47726;BME280;33483;48.294;16.388;2023-07-08T05:51:28;100129.59;;;23.27;53.77
47726;BME280;33483;48.294;16.388;2023-07-08T05:53:55;100128.00;;;22.84;55.74
47726;BME280;33483;48.294;16.388;2023-07-08T05:56:23;100131.31;;;23.01;56.44
47726;BME280;33483;48.294;16.388;2023-07-08T05:58:50;100137.63;;;24.13;53.18
47726;BME280;33483;48.294;16.388;2023-07-08T06:01:17;100138.13;;;24.53;51.14
47726;BME280;33483;48.294;16.388;2023-07-08T06:03:45;100142.78;;;24.70;50.65
47726;BME280;33483;48.294;16.388;2023-07-08T06:06:12;100136.97;;;23.72;53.54
47726;BME280;33483;48.294;16.388;2023-07-08T06:08:40;100127.53;;;23.27;55.72
47726;BME280;33483;48.294;16.388;2023-07-08T06:11:10;100124.53;;;23.35;55.09
47726;BME280;33483;48.294;16.388;2023-07-08T06:13:38;100133.16;;;23.37;56.16
47726;BME280;33483;48.294;16.388;2023-07-08T06:16:05;100127.41;;;23.16;55.53
47726;BME280;33483;48.294;16.388;2023-07-08T06:18:32;100134.50;;;22.96;56.14
47726;BME280;33483;48.294;16.388;2023-07-08T06:21:00;100130.47;;;22.99;55.89
47726;BME280;33483;48.294;16.388;2023-07-08T06:23:29;100126.88;;;22.98;55.69
47726;BME280;33483;48.294;16.388;2023-07-08T06:25:56;100137.94;;;22.94;57.49
47726;BME280;33483;48.294;16.388;2023-07-08T06:28:25;100130.00;;;23.02;56.92
47726;BME280;33483;48.294;16.388;2023-07-08T06:30:53;100132.81;;;23.42;57.98
47726;BME280;33483;48.294;16.388;2023-07-08T06:33:20;100130.03;;;23.64;56.36
47726;BME280;33483;48.294;16.388;2023-07-08T06:35:47;100130.69;;;23.53;57.16
47726;BME280;33483;48.294;16.388;2023-07-08T06:38:14;100128.88;;;23.57;56.98
47726;BME280;33483;48.294;16.388;2023-07-08T06:40:44;100126.16;;;23.59;59.29
47726;BME280;33483;48.294;16.388;2023-07-08T06:43:11;100129.22;;;23.94;53.57
47726;BME280;33483;48.294;16.388;2023-07-08T06:45:50;100132.06;;;24.92;49.24
47726;BME280;33483;48.294;16.388;2023-07-08T06:48:18;100123.47;;;25.13;48.54
47726;BME280;33483;48.294;16.388;2023-07-08T06:50:46;100119.94;;;24.68;50.55
47726;BME280;33483;48.294;16.388;2023-07-08T06:53:13;100113.69;;;24.70;50.73
47726;BME280;33483;48.294;16.388;2023-07-08T06:55:41;100108.03;;;24.81;50.57
47726;BME280;33483;48.294;16.388;2023-07-08T06:58:10;100113.22;;;25.08;48.69
47726;BME280;33483;48.294;16.388;2023-07-08T07:00:41;100103.03;;;25.37;47.98
47726;BME280;33483;48.294;16.388;2023-07-08T07:03:11;100119.06;;;26.41;45.69
47726;BME280;33483;48.294;16.388;2023-07-08T07:05:39;100125.09;;;28.64;40.33
47726;BME280;33483;48.294;16.388;2023-07-08T07:08:06;100127.13;;;30.04;35.94
47726;BME280;33483;48.294;16.388;2023-07-08T07:10:37;100130.56;;;31.25;35.03
47726;BME280;33483;48.294;16.388;2023-07-08T07:13:05;100135.28;;;31.56;34.25
47726;BME280;33483;48.294;16.388;2023-07-08T07:15:32;100145.50;;;32.22;31.98
47726;BME280;33483;48.294;16.388;2023-07-08T07:17:59;100138.69;;;32.78;31.11
47726;BME280;33483;48.294;16.388;2023-07-08T07:20:26;100143.81;;;33.29;30.18
47726;BME280;33483;48.294;16.388;2023-07-08T07:22:53;100147.00;;;33.39;29.17
47726;BME280;33483;48.294;16.388;2023-07-08T07:25:21;100146.63;;;33.50;29.50
47726;BME280;33483;48.294;16.388;2023-07-08T07:27:48;100146.31;;;34.19;28.94
47726;BME280;33483;48.294;16.388;2023-07-08T07:30:15;100149.25;;;34.21;29.51
47726;BME280;33483;48.294;16.388;2023-07-08T07:32:42;100157.38;;;34.88;28.17
47726;BME280;33483;48.294;16.388;2023-07-08T07:35:13;100152.38;;;34.90;28.87
47726;BME280;33483;48.294;16.388;2023-07-08T07:37:43;100156.19;;;34.99;27.27
47726;BME280;33483;48.294;16.388;2023-07-08T07:40:12;100153.44;;;35.05;27.22
47726;BME280;33483;48.294;16.388;2023-07-08T07:42:40;100155.47;;;35.32;26.69
47726;BME280;33483;48.294;16.388;2023-07-08T07:45:07;100167.81;;;35.37;27.30
47726;BME280;33483;48.294;16.388;2023-07-08T07:47:35;100163.38;;;34.39;28.04
47726;BME280;33483;48.294;16.388;2023-07-08T07:50:04;100149.78;;;34.71;27.64
47726;BME280;33483;48.294;16.388;2023-07-08T07:52:35;100162.34;;;34.85;27.52
47726;BME280;33483;48.294;16.388;2023-07-08T07:55:02;100156.84;;;34.95;27.50
47726;BME280;33483;48.294;16.388;2023-07-08T07:57:29;100161.94;;;35.33;27.30
47726;BME280;33483;48.294;16.388;2023-07-08T07:59:57;100162.72;;;35.71;26.17
47726;BME280;33483;48.294;16.388;2023-07-08T08:02:24;100155.41;;;35.30;27.80
47726;BME280;33483;48.294;16.388;2023-07-08T08:04:51;100151.41;;;35.11;28.04
47726;BME280;33483;48.294;16.388;2023-07-08T08:07:18;100151.94;;;35.36;27.69
47726;BME280;33483;48.294;16.388;2023-07-08T08:09:46;100150.84;;;35.53;26.91
47726;BME280;33483;48.294;16.388;2023-07-08T08:12:12;100150.63;;;35.41;26.70
47726;BME280;33483;48.294;16.388;2023-07-08T08:14:40;100156.63;;;35.53;26.57
47726;BME280;33483;48.294;16.388;2023-07-08T08:17:08;100153.03;;;36.32;26.01
47726;BME280;33483;48.294;16.388;2023-07-08T08:19:41;100154.72;;;35.32;26.59
47726;BME280;33483;48.294;16.388;2023-07-08T08:22:08;100148.06;;;35.57;26.18
47726;BME280;33483;48.294;16.388;2023-07-08T08:24:35;100151.13;;;36.04;25.75
47726;BME280;33483;48.294;16.388;2023-07-08T08:27:02;100146.81;;;35.68;25.86
47726;BME280;33483;48.294;16.388;2023-07-08T08:29:30;100149.38;;;36.29;26.29
47726;BME280;33483;48.294;16.388;2023-07-08T08:31:57;100156.63;;;36.32;25.39
47726;BME280;33483;48.294;16.388;2023-07-08T08:34:24;100162.56;;;36.38;28.15
47726;BME280;33483;48.294;16.388;2023-07-08T08:36:51;100152.03;;;36.15;24.08
47726;BME280;33483;48.294;16.388;2023-07-08T08:39:22;100146.84;;;36.51;26.89
47726;BME280;33483;48.294;16.388;2023-07-08T08:41:51;100148.34;;;36.52;24.80
47726;BME280;33483;48.294;16.388;2023-07-08T08:44:23;100146.22;;;36.57;24.65
47726;BME280;33483;48.294;16.388;2023-07-08T08:46:58;100145.94;;;36.84;24.79
47726;BME280;33483;48.294;16.388;2023-07-08T08:49:35;100148.00;;;37.28;24.74
47726;BME280;33483;48.294;16.388;2023-07-08T08:52:05;100154.78;;;37.52;23.63
47726;BME280;33483;48.294;16.388;2023-07-08T08:54:33;100146.81;;;37.51;24.79
47726;BME280;33483;48.294;16.388;2023-07-08T09:04:43;100129.06;;;37.18;26.63
47726;BME280;33483;48.294;16.388;2023-07-08T09:07:16;100127.84;;;37.36;25.99
47726;BME280;33483;48.294;16.388;2023-07-08T09:09:59;100121.72;;;37.09;23.30
47726;BME280;33483;48.294;16.388;2023-07-08T09:12:28;100120.25;;;37.06;23.85
47726;BME280;33483;48.294;16.388;2023-07-08T09:14:56;100111.66;;;37.14;27.09
47726;BME280;33483;48.294;16.388;2023-07-08T09:17:28;100120.13;;;36.05;25.01
47726;BME280;33483;48.294;16.388;2023-07-08T09:25:24;100116.38;;;36.88;23.42
47726;BME280;33483;48.294;16.388;2023-07-08T09:27:51;100114.59;;;36.65;23.14
47726;BME280;33483;48.294;16.388;2023-07-08T09:30:20;100125.88;;;36.94;23.13
47726;BME280;33483;48.294;16.388;2023-07-08T09:32:47;100112.16;;;36.47;23.58
47726;BME280;33483;48.294;16.388;2023-07-08T09:35:23;100117.41;;;36.61;22.54
47726;BME280;33483;48.294;16.388;2023-07-08T09:37:51;100103.03;;;36.19;22.97
47726;BME280;33483;48.294;16.388;2023-07-08T09:40:23;100097.34;;;36.25;24.79
47726;BME280;33483;48.294;16.388;2023-07-08T09:42:58;100102.91;;;36.57;23.33
47726;BME280;33483;48.294;16.388;2023-07-08T09:45:39;100101.22;;;36.40;21.40
47726;BME280;33483;48.294;16.388;2023-07-08T09:48:14;100095.28;;;35.88;23.72
47726;BME280;33483;48.294;16.388;2023-07-08T09:50:42;100085.13;;;35.87;24.19
47726;BME280;33483;48.294;16.388;2023-07-08T09:53:11;100089.59;;;35.18;24.02
47726;BME280;33483;48.294;16.388;2023-07-08T09:55:40;100083.41;;;35.32;25.85
47726;BME280;33483;48.294;16.388;2023-07-08T09:58:11;100090.19;;;35.11;24.01
47726;BME280;33483;48.294;16.388;2023-07-08T10:00:40;100086.00;;;34.84;24.87
47726;BME280;33483;48.294;16.388;2023-07-08T10:03:12;100080.25;;;34.53;25.27
47726;BME280;33483;48.294;16.388;2023-07-08T10:05:47;100085.19;;;33.91;27.33
47726;BME280;33483;48.294;16.388;2023-07-08T10:08:16;100068.31;;;34.05;27.11
47726;BME280;33483;48.294;16.388;2023-07-08T10:10:49;100073.50;;;35.05;27.06
47726;BME280;33483;48.294;16.388;2023-07-08T10:15:49;100068.78;;;34.88;24.49
47726;BME280;33483;48.294;16.388;2023-07-08T10:18:21;100074.06;;;34.35;25.68
47726;BME280;33483;48.294;16.388;2023-07-08T10:21:01;100082.31;;;34.82;24.35
47726;BME280;33483;48.294;16.388;2023-07-08T10:26:12;100064.88;;;35.43;23.47
47726;BME280;33483;48.294;16.388;2023-07-08T10:28:44;100061.22;;;35.80;24.76
47726;BME280;33483;48.294;16.388;2023-07-08T10:31:18;100068.44;;;36.21;24.22
47726;BME280;33483;48.294;16.388;2023-07-08T10:33:56;100073.13;;;35.61;23.29
47726;BME280;33483;48.294;16.388;2023-07-08T10:39:21;100067.63;;;35.75;21.97
47726;BME280;33483;48.294;16.388;2023-07-08T10:47:42;100060.56;;;35.84;23.19
47726;BME280;33483;48.294;16.388;2023-07-08T10:55:20;100057.94;;;35.98;24.30
47726;BME280;33483;48.294;16.388;2023-07-08T11:03:08;100044.97;;;35.20;24.17
47726;BME280;33483;48.294;16.388;2023-07-08T11:05:43;100047.09;;;34.85;24.49
47726;BME280;33483;48.294;16.388;2023-07-08T11:08:21;100045.72;;;34.86;24.24
47726;BME280;33483;48.294;16.388;2023-07-08T11:13:28;100030.66;;;34.56;24.21
47726;BME280;33483;48.294;16.388;2023-07-08T11:18:48;100038.06;;;34.04;24.34
47726;BME280;33483;48.294;16.388;2023-07-08T11:23:56;100027.13;;;33.98;23.52
47726;BME280;33483;48.294;16.388;2023-07-08T11:28:57;100021.88;;;34.19;24.58
47726;BME280;33483;48.294;16.388;2023-07-08T11:31:26;100028.00;;;34.35;24.25
47726;BME280;33483;48.294;16.388;2023-07-08T11:33:59;100030.81;;;33.73;24.49
47726;BME280;33483;48.294;16.388;2023-07-08T11:36:27;100026.00;;;33.82;23.93
47726;BME280;33483;48.294;16.388;2023-07-08T11:38:56;100014.88;;;33.15;25.60
47726;BME280;33483;48.294;16.388;2023-07-08T11:41:25;100031.38;;;33.15;24.83
47726;BME280;33483;48.294;16.388;2023-07-08T11:43:56;100036.19;;;33.32;24.98
47726;BME280;33483;48.294;16.388;2023-07-08T11:46:25;100032.78;;;33.14;25.69
47726;BME280;33483;48.294;16.388;2023-07-08T11:49:09;100029.25;;;33.15;25.47
47726;BME280;33483;48.294;16.388;2023-07-08T11:51:40;100025.38;;;32.34;25.67
47726;BME280;33483;48.294;16.388;2023-07-08T11:56:50;100023.28;;;31.91;25.76
47726;BME280;33483;48.294;16.388;2023-07-08T11:59:29;100019.81;;;32.16;26.90
47726;BME280;33483;48.294;16.388;2023-07-08T12:02:02;99996.81;;;31.92;27.46
47726;BME280;33483;48.294;16.388;2023-07-08T12:04:31;99983.94;;;31.50;27.85
47726;BME280;33483;48.294;16.388;2023-07-08T12:09:35;99989.88;;;31.35;29.05
47726;BME280;33483;48.294;16.388;2023-07-08T12:12:14;99992.63;;;31.33;28.82
47726;BME280;33483;48.294;16.388;2023-07-08T12:14:42;99992.00;;;31.15;28.29
47726;BME280;33483;48.294;16.388;2023-07-08T12:17:11;99992.25;;;31.23;27.90
47726;BME280;33483;48.294;16.388;2023-07-08T12:19:42;99987.66;;;31.14;28.52
47726;BME280;33483;48.294;16.388;2023-07-08T12:22:10;99988.13;;;30.86;27.84
47726;BME280;33483;48.294;16.388;2023-07-08T12:24:41;99976.78;;;30.71;28.95
47726;BME280;33483;48.294;16.388;2023-07-08T12:27:09;99985.56;;;30.38;29.20
47726;BME280;33483;48.294;16.388;2023-07-08T12:29:37;99986.91;;;30.54;29.16
47726;BME280;33483;48.294;16.388;2023-07-08T12:32:08;99988.28;;;30.53;31.27
47726;BME280;33483;48.294;16.388;2023-07-08T12:34:37;99976.41;;;30.61;29.72
47726;BME280;33483;48.294;16.388;2023-07-08T12:37:04;99971.56;;;30.65;30.78
47726;BME280;33483;48.294;16.388;2023-07-08T12:39:32;99973.84;;;30.69;29.10
47726;BME280;33483;48.294;16.388;2023-07-08T12:42:00;99973.63;;;30.63;30.03
47726;BME280;33483;48.294;16.388;2023-07-08T12:44:27;99977.25;;;30.83;29.86
47726;BME280;33483;48.294;16.388;2023-07-08T12:46:55;99963.53;;;30.79;29.04
47726;BME280;33483;48.294;16.388;2023-07-08T12:49:24;99980.94;;;30.85;28.68
47726;BME280;33483;48.294;16.388;2023-07-08T12:51:56;99964.63;;;30.90;29.35
47726;BME280;33483;48.294;16.388;2023-07-08T12:54:23;99965.28;;;30.49;29.43
47726;BME280;33483;48.294;16.388;2023-07-08T12:56:53;99969.22;;;30.40;30.46
47726;BME280;33483;48.294;16.388;2023-07-08T12:59:21;99963.03;;;30.28;29.48
47726;BME280;33483;48.294;16.388;2023-07-08T13:01:49;99963.94;;;30.52;29.64
47726;BME280;33483;48.294;16.388;2023-07-08T13:04:19;99955.28;;;30.70;28.96
47726;BME280;33483;48.294;16.388;2023-07-08T13:06:46;99952.28;;;30.66;29.66
47726;BME280;33483;48.294;16.388;2023-07-08T13:12:00;99954.94;;;30.79;28.52
47726;BME280;33483;48.294;16.388;2023-07-08T13:14:29;99957.28;;;30.85;28.09
47726;BME280;33483;48.294;16.388;2023-07-08T13:16:57;99942.22;;;30.84;29.26
47726;BME280;33483;48.294;16.388;2023-07-08T13:19:26;99941.94;;;30.96;28.86
47726;BME280;33483;48.294;16.388;2023-07-08T13:21:53;99948.94;;;30.91;27.93
47726;BME280;33483;48.294;16.388;2023-07-08T13:24:21;99956.41;;;30.80;28.76
47726;BME280;33483;48.294;16.388;2023-07-08T13:26:51;99962.19;;;30.63;27.81
47726;BME280;33483;48.294;16.388;2023-07-08T13:29:19;99946.91;;;30.37;28.72
47726;BME280;33483;48.294;16.388;2023-07-08T13:31:52;99951.16;;;30.36;29.74
47726;BME280;33483;48.294;16.388;2023-07-08T13:34:20;99942.66;;;30.38;29.73
47726;BME280;33483;48.294;16.388;2023-07-08T13:36:53;99941.53;;;30.27;29.00
47726;BME280;33483;48.294;16.388;2023-07-08T13:39:27;99944.63;;;30.33;27.99
47726;BME280;33483;48.294;16.388;2023-07-08T13:41:56;99945.34;;;30.34;27.72
47726;BME280;33483;48.294;16.388;2023-07-08T13:44:25;99926.66;;;30.31;28.05
47726;BME280;33483;48.294;16.388;2023-07-08T13:46:53;99937.38;;;30.50;29.17
47726;BME280;33483;48.294;16.388;2023-07-08T13:52:05;99927.88;;;30.82;28.03